sensor_id;sensor_type;location;lat;lon;timestamp;pressure;altitude;pressure_sealevel;temperature;humidity
18275;BME280;19470;49.322;7.218;2023-07-31T00:02:16;98651.44;;;21.92;68.07
18275;BME280;19470;49.322;7.218;2023-07-31T00:04:43;98647.63;;;22.28;66.71
18275;BME280;19470;49.322;7.218;2023-07-31T00:07:11;98652.19;;;21.76;68.85
18275;BME280;19470;49.322;7.218;2023-07-31T00:09:37;98645.72;;;22.03;67.58
18275;BME280;19470;49.322;7.218;2023-07-31T00:12:05;98634.75;;;21.99;67.17
18275;BME280;19470;49.322;7.218;2023-07-31T00:14:31;98641.25;;;22.41;66.21
18275;BME280;19470;49.322;7.218;2023-07-31T00:16:58;98639.81;;;22.09;68.01
18275;BME280;19470;49.322;7.218;2023-07-31T00:19:24;98638.72;;;21.84;68.16
18275;BME280;19470;49.322;7.218;2023-07-31T00:21:51;98625.56;;;22.09;67.29
18275;BME280;19470;49.322;7.218;2023-07-31T00:24:19;98619.22;;;22.22;67.02
18275;BME280;19470;49.322;7.218;2023-07-31T00:26:45;98616.84;;;22.76;65.33
18275;BME280;19470;49.322;7.218;2023-07-31T00:29:12;98625.06;;;21.72;68.76
18275;BME280;19470;49.322;7.218;2023-07-31T00:31:38;98635.09;;;21.98;68.01
18275;BME280;19470;49.322;7.218;2023-07-31T00:34:05;98625.09;;;22.07;67.82
18275;BME280;19470;49.322;7.218;2023-07-31T00:36:31;98631.41;;;22.11;67.67
18275;BME280;19470;49.322;7.218;2023-07-31T00:38:58;98638.88;;;21.71;68.65
18275;BME280;19470;49.322;7.218;2023-07-31T00:41:25;98635.53;;;22.34;66.98
18275;BME280;19470;49.322;7.218;2023-07-31T00:43:52;98644.56;;;21.52;69.33
18275;BME280;19470;49.322;7.218;2023-07-31T00:46:19;98635.72;;;22.29;66.82
18275;BME280;19470;49.322;7.218;2023-07-31T00:48:46;98633.78;;;21.86;68.40
18275;BME280;19470;49.322;7.218;2023-07-31T00:51:13;98643.47;;;21.79;68.83
18275;BME280;19470;49.322;7.218;2023-07-31T00:53:40;98633.66;;;21.74;68.36
18275;BME280;19470;49.322;7.218;2023-07-31T00:56:07;98633.84;;;22.12;67.75
18275;BME280;19470;49.322;7.218;2023-07-31T00:58:35;98634.09;;;21.67;68.55
18275;BME280;19470;49.322;7.218;2023-07-31T01:01:02;98630.75;;;21.53;69.01
18275;BME280;19470;49.322;7.218;2023-07-31T01:03:28;98628.91;;;21.88;67.73
18275;BME280;19470;49.322;7.218;2023-07-31T01:06:05;98619.06;;;21.84;68.21
18275;BME280;19470;49.322;7.218;2023-07-31T01:08:36;98618.28;;;21.83;68.30
18275;BME280;19470;49.322;7.218;2023-07-31T01:11:11;98623.66;;;21.75;68.80
18275;BME280;19470;49.322;7.218;2023-07-31T01:13:42;98612.41;;;21.99;67.72
18275;BME280;19470;49.322;7.218;2023-07-31T01:16:08;98609.06;;;22.19;66.76
18275;BME280;19470;49.322;7.218;2023-07-31T01:18:35;98610.50;;;21.90;67.82
18275;BME280;19470;49.322;7.218;2023-07-31T01:21:10;98608.72;;;22.29;67.12
18275;BME280;19470;49.322;7.218;2023-07-31T01:23:56;98601.28;;;22.09;67.43
18275;BME280;19470;49.322;7.218;2023-07-31T01:26:33;98604.28;;;21.64;69.54
18275;BME280;19470;49.322;7.218;2023-07-31T01:29:02;98600.03;;;21.80;68.94
18275;BME280;19470;49.322;7.218;2023-07-31T01:31:30;98593.34;;;22.04;68.02
18275;BME280;19470;49.322;7.218;2023-07-31T01:34:00;98596.53;;;21.88;68.82
18275;BME280;19470;49.322;7.218;2023-07-31T01:36:27;98590.19;;;21.84;69.18
18275;BME280;19470;49.322;7.218;2023-07-31T01:38:58;98592.06;;;21.40;70.74
18275;BME280;19470;49.322;7.218;2023-07-31T01:41:24;98581.16;;;21.80;69.43
18275;BME280;19470;49.322;7.218;2023-07-31T01:43:52;98578.94;;;21.56;70.48
18275;BME280;19470;49.322;7.218;2023-07-31T01:46:19;98570.53;;;21.92;69.01
18275;BME280;19470;49.322;7.218;2023-07-31T01:48:45;98574.03;;;21.84;69.79
18275;BME280;19470;49.322;7.218;2023-07-31T01:51:12;98567.34;;;22.08;68.57
18275;BME280;19470;49.322;7.218;2023-07-31T01:53:39;98572.75;;;21.56;70.89
18275;BME280;19470;49.322;7.218;2023-07-31T01:56:05;98569.41;;;21.67;70.82
18275;BME280;19470;49.322;7.218;2023-07-31T01:58:32;98560.72;;;21.88;70.06
18275;BME280;19470;49.322;7.218;2023-07-31T02:00:59;98563.88;;;21.81;70.23
18275;BME280;19470;49.322;7.218;2023-07-31T02:03:26;98568.00;;;21.61;71.50
18275;BME280;19470;49.322;7.218;2023-07-31T02:05:53;98564.66;;;21.38;72.11
18275;BME280;19470;49.322;7.218;2023-07-31T02:08:20;98564.84;;;21.51;71.82
18275;BME280;19470;49.322;7.218;2023-07-31T02:10:46;98567.91;;;21.18;72.96
18275;BME280;19470;49.322;7.218;2023-07-31T02:13:13;98571.31;;;21.32;72.47
18275;BME280;19470;49.322;7.218;2023-07-31T02:15:39;98571.69;;;21.17;73.39
18275;BME280;19470;49.322;7.218;2023-07-31T02:18:07;98573.69;;;21.51;71.67
18275;BME280;19470;49.322;7.218;2023-07-31T02:20:34;98567.34;;;21.47;71.88
18275;BME280;19470;49.322;7.218;2023-07-31T02:23:01;98572.66;;;21.21;73.65
18275;BME280;19470;49.322;7.218;2023-07-31T02:25:27;98566.25;;;21.65;71.96
18275;BME280;19470;49.322;7.218;2023-07-31T02:27:54;98552.00;;;21.65;71.67
18275;BME280;19470;49.322;7.218;2023-07-31T02:30:20;98562.28;;;21.98;70.43
18275;BME280;19470;49.322;7.218;2023-07-31T02:32:47;98558.94;;;22.18;70.16
18275;BME280;19470;49.322;7.218;2023-07-31T02:35:15;98555.00;;;21.98;70.69
18275;BME280;19470;49.322;7.218;2023-07-31T02:37:41;98551.31;;;22.03;70.85
18275;BME280;19470;49.322;7.218;2023-07-31T02:40:09;98547.38;;;21.91;71.54
18275;BME280;19470;49.322;7.218;2023-07-31T02:42:35;98545.00;;;21.90;72.18
18275;BME280;19470;49.322;7.218;2023-07-31T02:45:02;98540.88;;;21.66;72.64
18275;BME280;19470;49.322;7.218;2023-07-31T02:47:29;98546.41;;;21.27;73.84
18275;BME280;19470;49.322;7.218;2023-07-31T02:49:55;98548.66;;;21.42;73.25
18275;BME280;19470;49.322;7.218;2023-07-31T02:52:24;98537.06;;;21.85;72.22
18275;BME280;19470;49.322;7.218;2023-07-31T02:54:50;98541.34;;;21.94;71.31
18275;BME280;19470;49.322;7.218;2023-07-31T02:57:17;98548.03;;;21.36;73.51
18275;BME280;19470;49.322;7.218;2023-07-31T02:59:43;98542.16;;;21.69;71.90
18275;BME280;19470;49.322;7.218;2023-07-31T03:02:10;98546.03;;;21.11;74.18
18275;BME280;19470;49.322;7.218;2023-07-31T03:04:37;98547.75;;;20.98;75.08
18275;BME280;19470;49.322;7.218;2023-07-31T03:07:04;98550.44;;;20.89;75.80
18275;BME280;19470;49.322;7.218;2023-07-31T03:09:32;98552.97;;;20.55;76.36
18275;BME280;19470;49.322;7.218;2023-07-31T03:11:58;98555.47;;;20.82;75.94
18275;BME280;19470;49.322;7.218;2023-07-31T03:14:25;98550.00;;;21.05;75.20
18275;BME280;19470;49.322;7.218;2023-07-31T03:16:52;98561.53;;;20.97;74.84
18275;BME280;19470;49.322;7.218;2023-07-31T03:19:18;98559.59;;;21.46;72.87
18275;BME280;19470;49.322;7.218;2023-07-31T03:21:45;98558.91;;;20.74;75.95
18275;BME280;19470;49.322;7.218;2023-07-31T03:24:11;98556.50;;;21.04;74.67
18275;BME280;19470;49.322;7.218;2023-07-31T03:26:45;98557.84;;;21.32;73.55
18275;BME280;19470;49.322;7.218;2023-07-31T03:29:12;98561.56;;;21.14;73.83
18275;BME280;19470;49.322;7.218;2023-07-31T03:31:38;98547.84;;;20.76;75.90
18275;BME280;19470;49.322;7.218;2023-07-31T03:34:05;98551.34;;;21.33;73.03
18275;BME280;19470;49.322;7.218;2023-07-31T03:36:31;98550.50;;;21.24;73.51
18275;BME280;19470;49.322;7.218;2023-07-31T03:38:58;98547.53;;;21.43;72.60
18275;BME280;19470;49.322;7.218;2023-07-31T03:41:24;98546.69;;;20.37;76.92
18275;BME280;19470;49.322;7.218;2023-07-31T03:43:52;98546.59;;;21.39;73.11
18275;BME280;19470;49.322;7.218;2023-07-31T03:46:21;98547.06;;;21.32;73.58
18275;BME280;19470;49.322;7.218;2023-07-31T03:48:48;98546.81;;;21.03;74.16
18275;BME280;19470;49.322;7.218;2023-07-31T03:51:14;98541.56;;;20.98;75.12
18275;BME280;19470;49.322;7.218;2023-07-31T03:53:41;98545.31;;;20.71;76.15
18275;BME280;19470;49.322;7.218;2023-07-31T03:56:08;98537.16;;;20.53;77.26
18275;BME280;19470;49.322;7.218;2023-07-31T03:58:34;98540.06;;;20.74;76.33
18275;BME280;19470;49.322;7.218;2023-07-31T04:01:03;98543.97;;;21.16;74.61
18275;BME280;19470;49.322;7.218;2023-07-31T04:03:30;98542.31;;;21.47;73.93
18275;BME280;19470;49.322;7.218;2023-07-31T04:05:56;98545.44;;;20.65;77.09
18275;BME280;19470;49.322;7.218;2023-07-31T04:08:23;98548.56;;;21.07;75.73
18275;BME280;19470;49.322;7.218;2023-07-31T04:10:49;98548.81;;;20.88;76.11
18275;BME280;19470;49.322;7.218;2023-07-31T04:13:16;98542.22;;;20.95;76.18
18275;BME280;19470;49.322;7.218;2023-07-31T04:15:42;98539.56;;;21.21;75.17
18275;BME280;19470;49.322;7.218;2023-07-31T04:18:10;98536.22;;;21.06;76.11
18275;BME280;19470;49.322;7.218;2023-07-31T04:20:36;98543.16;;;20.90;77.07
18275;BME280;19470;49.322;7.218;2023-07-31T04:23:03;98534.94;;;21.12;76.20
18275;BME280;19470;49.322;7.218;2023-07-31T04:25:29;98534.97;;;21.21;75.70
18275;BME280;19470;49.322;7.218;2023-07-31T04:27:56;98533.63;;;20.75;77.28
18275;BME280;19470;49.322;7.218;2023-07-31T04:30:24;98537.66;;;21.04;75.93
18275;BME280;19470;49.322;7.218;2023-07-31T04:32:50;98539.69;;;21.07;75.84
18275;BME280;19470;49.322;7.218;2023-07-31T04:35:18;98527.75;;;20.82;77.00
18275;BME280;19470;49.322;7.218;2023-07-31T04:37:45;98530.25;;;20.38;78.68
18275;BME280;19470;49.322;7.218;2023-07-31T04:40:14;98525.75;;;21.05;76.58
18275;BME280;19470;49.322;7.218;2023-07-31T04:42:40;98534.59;;;20.97;76.62
18275;BME280;19470;49.322;7.218;2023-07-31T04:45:09;98532.09;;;21.09;76.36
18275;BME280;19470;49.322;7.218;2023-07-31T04:47:35;98526.56;;;20.57;78.58
18275;BME280;19470;49.322;7.218;2023-07-31T04:50:02;98533.16;;;20.82;78.18
18275;BME280;19470;49.322;7.218;2023-07-31T04:52:30;98534.44;;;21.02;77.24
18275;BME280;19470;49.322;7.218;2023-07-31T04:54:56;98528.63;;;21.26;75.12
18275;BME280;19470;49.322;7.218;2023-07-31T04:57:22;98526.22;;;20.89;76.75
18275;BME280;19470;49.322;7.218;2023-07-31T04:59:49;98528.97;;;20.67;77.54
18275;BME280;19470;49.322;7.218;2023-07-31T05:02:15;98531.91;;;20.97;76.29
18275;BME280;19470;49.322;7.218;2023-07-31T05:04:42;98518.78;;;21.04;76.67
18275;BME280;19470;49.322;7.218;2023-07-31T05:07:08;98519.44;;;21.09;76.07
18275;BME280;19470;49.322;7.218;2023-07-31T05:09:36;98503.78;;;21.55;74.17
18275;BME280;19470;49.322;7.218;2023-07-31T05:12:05;98511.06;;;21.28;74.47
18275;BME280;19470;49.322;7.218;2023-07-31T05:14:32;98515.59;;;21.02;76.35
18275;BME280;19470;49.322;7.218;2023-07-31T05:16:58;98508.56;;;21.49;74.54
18275;BME280;19470;49.322;7.218;2023-07-31T05:19:24;98505.53;;;21.59;73.88
18275;BME280;19470;49.322;7.218;2023-07-31T05:21:51;98504.28;;;21.48;74.17
18275;BME280;19470;49.322;7.218;2023-07-31T05:24:17;98504.78;;;21.50;73.84
18275;BME280;19470;49.322;7.218;2023-07-31T05:26:45;98497.59;;;21.72;73.88
18275;BME280;19470;49.322;7.218;2023-07-31T05:29:12;98501.09;;;21.72;73.28
18275;BME280;19470;49.322;7.218;2023-07-31T05:31:38;98501.75;;;21.69;73.58
18275;BME280;19470;49.322;7.218;2023-07-31T05:34:05;98502.03;;;21.76;73.34
18275;BME280;19470;49.322;7.218;2023-07-31T05:36:31;98498.88;;;21.74;72.98
18275;BME280;19470;49.322;7.218;2023-07-31T05:38:58;98504.53;;;21.99;72.66
18275;BME280;19470;49.322;7.218;2023-07-31T05:41:24;98507.59;;;21.62;74.36
18275;BME280;19470;49.322;7.218;2023-07-31T05:43:52;98503.25;;;22.05;72.40
18275;BME280;19470;49.322;7.218;2023-07-31T05:46:18;98503.59;;;22.12;72.52
18275;BME280;19470;49.322;7.218;2023-07-31T05:48:45;98505.75;;;22.27;71.55
18275;BME280;19470;49.322;7.218;2023-07-31T05:51:11;98499.06;;;22.33;71.33
18275;BME280;19470;49.322;7.218;2023-07-31T05:53:38;98496.19;;;22.38;71.00
18275;BME280;19470;49.322;7.218;2023-07-31T05:56:05;98493.69;;;22.25;71.74
18275;BME280;19470;49.322;7.218;2023-07-31T05:58:32;98498.72;;;21.88;73.23
18275;BME280;19470;49.322;7.218;2023-07-31T06:01:00;98491.16;;;22.28;71.92
18275;BME280;19470;49.322;7.218;2023-07-31T06:03:26;98496.28;;;22.04;72.48
18275;BME280;19470;49.322;7.218;2023-07-31T06:05:53;98495.41;;;21.65;74.24
18275;BME280;19470;49.322;7.218;2023-07-31T06:08:19;98491.63;;;22.30;71.71
18275;BME280;19470;49.322;7.218;2023-07-31T06:10:46;98499.50;;;21.54;74.65
18275;BME280;19470;49.322;7.218;2023-07-31T06:13:12;98500.75;;;21.74;74.66
18275;BME280;19470;49.322;7.218;2023-07-31T06:15:39;98499.59;;;22.09;72.27
18275;BME280;19470;49.322;7.218;2023-07-31T06:18:06;98501.50;;;22.26;72.03
18275;BME280;19470;49.322;7.218;2023-07-31T06:20:33;98506.81;;;21.79;74.03
18275;BME280;19470;49.322;7.218;2023-07-31T06:23:00;98500.06;;;22.20;73.04
18275;BME280;19470;49.322;7.218;2023-07-31T06:25:26;98494.22;;;22.56;70.92
18275;BME280;19470;49.322;7.218;2023-07-31T06:27:53;98488.34;;;22.92;69.65
18275;BME280;19470;49.322;7.218;2023-07-31T06:30:19;98479.00;;;23.11;68.95
18275;BME280;19470;49.322;7.218;2023-07-31T06:32:45;98486.88;;;22.95;69.54
18275;BME280;19470;49.322;7.218;2023-07-31T06:35:13;98484.50;;;22.64;70.37
18275;BME280;19470;49.322;7.218;2023-07-31T06:37:40;98487.56;;;22.83;70.57
18275;BME280;19470;49.322;7.218;2023-07-31T06:40:09;98490.75;;;23.15;69.02
18275;BME280;19470;49.322;7.218;2023-07-31T06:42:36;98490.91;;;22.51;71.78
18275;BME280;19470;49.322;7.218;2023-07-31T06:45:03;98495.66;;;22.54;72.47
18275;BME280;19470;49.322;7.218;2023-07-31T06:47:30;98496.03;;;22.73;70.91
18275;BME280;19470;49.322;7.218;2023-07-31T06:49:57;98493.16;;;22.78;70.68
18275;BME280;19470;49.322;7.218;2023-07-31T06:52:25;98488.63;;;22.23;73.12
18275;BME280;19470;49.322;7.218;2023-07-31T06:55:01;98491.00;;;23.22;69.87
18275;BME280;19470;49.322;7.218;2023-07-31T06:57:28;98475.75;;;23.17;69.49
18275;BME280;19470;49.322;7.218;2023-07-31T06:59:54;98478.88;;;22.78;70.21
18275;BME280;19470;49.322;7.218;2023-07-31T07:02:21;98469.31;;;23.31;69.80
18275;BME280;19470;49.322;7.218;2023-07-31T07:04:49;98476.38;;;23.56;67.96
18275;BME280;19470;49.322;7.218;2023-07-31T07:07:17;98480.50;;;23.95;65.94
18275;BME280;19470;49.322;7.218;2023-07-31T07:09:44;98473.63;;;23.98;65.66
18275;BME280;19470;49.322;7.218;2023-07-31T07:12:11;98471.22;;;23.84;66.45
18275;BME280;19470;49.322;7.218;2023-07-31T07:14:37;98467.13;;;23.03;70.15
18275;BME280;19470;49.322;7.218;2023-07-31T07:17:04;98478.72;;;22.74;70.98
18275;BME280;19470;49.322;7.218;2023-07-31T07:19:31;98468.53;;;22.80;71.35
18275;BME280;19470;49.322;7.218;2023-07-31T07:21:57;98466.06;;;23.37;69.57
18275;BME280;19470;49.322;7.218;2023-07-31T07:24:26;98467.28;;;23.82;67.22
18275;BME280;19470;49.322;7.218;2023-07-31T07:26:54;98465.91;;;23.76;67.56
18275;BME280;19470;49.322;7.218;2023-07-31T07:29:21;98463.09;;;23.84;67.30
18275;BME280;19470;49.322;7.218;2023-07-31T07:31:47;98454.84;;;23.68;66.39
18275;BME280;19470;49.322;7.218;2023-07-31T07:34:13;98460.25;;;23.68;67.94
18275;BME280;19470;49.322;7.218;2023-07-31T07:36:40;98448.75;;;24.29;66.14
18275;BME280;19470;49.322;7.218;2023-07-31T07:39:06;98450.00;;;24.32;65.92
18275;BME280;19470;49.322;7.218;2023-07-31T07:41:33;98451.84;;;24.40;65.55
18275;BME280;19470;49.322;7.218;2023-07-31T07:44:01;98448.53;;;23.43;68.97
18275;BME280;19470;49.322;7.218;2023-07-31T07:46:27;98453.94;;;24.10;66.92
18275;BME280;19470;49.322;7.218;2023-07-31T07:48:54;98451.34;;;24.74;64.77
18275;BME280;19470;49.322;7.218;2023-07-31T07:51:20;98452.81;;;25.09;63.97
18275;BME280;19470;49.322;7.218;2023-07-31T07:53:46;98450.16;;;25.24;63.29
18275;BME280;19470;49.322;7.218;2023-07-31T07:56:13;98440.94;;;25.41;62.28
18275;BME280;19470;49.322;7.218;2023-07-31T07:58:39;98449.41;;;25.40;63.24
18275;BME280;19470;49.322;7.218;2023-07-31T08:01:07;98435.47;;;26.29;59.90
18275;BME280;19470;49.322;7.218;2023-07-31T08:03:34;98441.16;;;25.92;60.63
18275;BME280;19470;49.322;7.218;2023-07-31T08:06:01;98438.03;;;25.62;61.77
18275;BME280;19470;49.322;7.218;2023-07-31T08:08:27;98427.75;;;24.87;64.96
18275;BME280;19470;49.322;7.218;2023-07-31T08:10:54;98428.28;;;24.53;66.23
18275;BME280;19470;49.322;7.218;2023-07-31T08:13:21;98428.03;;;24.45;65.12
18275;BME280;19470;49.322;7.218;2023-07-31T08:15:47;98430.47;;;24.26;67.35
18275;BME280;19470;49.322;7.218;2023-07-31T08:18:15;98431.13;;;25.65;62.17
18275;BME280;19470;49.322;7.218;2023-07-31T08:20:42;98422.94;;;25.77;61.08
18275;BME280;19470;49.322;7.218;2023-07-31T08:23:09;98419.00;;;24.66;64.09
18275;BME280;19470;49.322;7.218;2023-07-31T08:25:35;98418.75;;;25.52;62.94
18275;BME280;19470;49.322;7.218;2023-07-31T08:28:02;98423.41;;;25.23;62.12
18275;BME280;19470;49.322;7.218;2023-07-31T08:30:29;98419.44;;;24.31;66.29
18275;BME280;19470;49.322;7.218;2023-07-31T08:32:55;98413.78;;;24.85;64.68
18275;BME280;19470;49.322;7.218;2023-07-31T08:35:24;98409.22;;;25.14;63.51
18275;BME280;19470;49.322;7.218;2023-07-31T08:37:50;98413.72;;;25.10;63.04
18275;BME280;19470;49.322;7.218;2023-07-31T08:40:17;98402.25;;;24.88;63.35
18275;BME280;19470;49.322;7.218;2023-07-31T08:42:44;98410.59;;;24.83;63.66
18275;BME280;19470;49.322;7.218;2023-07-31T08:45:14;98405.31;;;24.87;63.64
18275;BME280;19470;49.322;7.218;2023-07-31T08:47:42;98387.69;;;25.77;61.30
18275;BME280;19470;49.322;7.218;2023-07-31T08:50:09;98379.97;;;25.35;63.42
18275;BME280;19470;49.322;7.218;2023-07-31T08:52:38;98387.31;;;26.26;60.77
18275;BME280;19470;49.322;7.218;2023-07-31T08:55:05;98386.47;;;26.92;58.02
18275;BME280;19470;49.322;7.218;2023-07-31T08:57:34;98375.88;;;26.17;59.99
18275;BME280;19470;49.322;7.218;2023-07-31T09:00:02;98383.53;;;25.67;62.46
18275;BME280;19470;49.322;7.218;2023-07-31T09:02:44;98376.59;;;26.84;58.24
18275;BME280;19470;49.322;7.218;2023-07-31T09:05:12;98381.16;;;26.99;58.31
18275;BME280;19470;49.322;7.218;2023-07-31T09:07:40;98388.03;;;25.32;62.12
18275;BME280;19470;49.322;7.218;2023-07-31T09:10:11;98381.31;;;27.07;57.00
18275;BME280;19470;49.322;7.218;2023-07-31T09:12:38;98375.03;;;27.02;57.37
18275;BME280;19470;49.322;7.218;2023-07-31T09:15:05;98381.44;;;26.40;60.47
18275;BME280;19470;49.322;7.218;2023-07-31T09:17:33;98382.28;;;27.57;57.36
18275;BME280;19470;49.322;7.218;2023-07-31T09:20:12;98384.31;;;25.68;61.36
18275;BME280;19470;49.322;7.218;2023-07-31T09:22:42;98382.28;;;25.21;63.52
18275;BME280;19470;49.322;7.218;2023-07-31T09:25:15;98372.88;;;26.92;59.83
18275;BME280;19470;49.322;7.218;2023-07-31T09:27:49;98374.16;;;27.37;57.32
18275;BME280;19470;49.322;7.218;2023-07-31T09:30:17;98366.44;;;27.39;57.92
18275;BME280;19470;49.322;7.218;2023-07-31T09:32:44;98377.66;;;28.03;56.48
18275;BME280;19470;49.322;7.218;2023-07-31T09:35:14;98373.31;;;27.33;56.68
18275;BME280;19470;49.322;7.218;2023-07-31T09:37:41;98383.56;;;27.82;56.79
18275;BME280;19470;49.322;7.218;2023-07-31T09:40:08;98389.59;;;27.72;56.67
18275;BME280;19470;49.322;7.218;2023-07-31T09:42:35;98380.19;;;27.27;57.54
18275;BME280;19470;49.322;7.218;2023-07-31T09:45:07;98374.25;;;26.83;58.24
18275;BME280;19470;49.322;7.218;2023-07-31T09:47:33;98376.22;;;26.86;57.90
18275;BME280;19470;49.322;7.218;2023-07-31T09:50:00;98382.09;;;25.86;61.02
18275;BME280;19470;49.322;7.218;2023-07-31T09:52:26;98366.50;;;26.14;59.78
18275;BME280;19470;49.322;7.218;2023-07-31T09:54:54;98374.19;;;25.96;60.04
18275;BME280;19470;49.322;7.218;2023-07-31T09:57:22;98366.97;;;26.87;57.20
18275;BME280;19470;49.322;7.218;2023-07-31T09:59:51;98361.59;;;27.10;56.16
18275;BME280;19470;49.322;7.218;2023-07-31T10:02:21;98364.31;;;26.04;58.73
18275;BME280;19470;49.322;7.218;2023-07-31T10:04:49;98374.50;;;26.42;57.15
18275;BME280;19470;49.322;7.218;2023-07-31T10:07:17;98369.19;;;25.23;58.77
18275;BME280;19470;49.322;7.218;2023-07-31T10:09:44;98357.25;;;25.12;60.20
18275;BME280;19470;49.322;7.218;2023-07-31T10:12:14;98364.91;;;25.66;58.96
18275;BME280;19470;49.322;7.218;2023-07-31T10:14:42;98369.47;;;25.06;60.59
18275;BME280;19470;49.322;7.218;2023-07-31T10:17:09;98372.34;;;25.25;59.42
18275;BME280;19470;49.322;7.218;2023-07-31T10:19:36;98371.03;;;25.19;59.38
18275;BME280;19470;49.322;7.218;2023-07-31T10:22:03;98376.94;;;24.96;60.69
18275;BME280;19470;49.322;7.218;2023-07-31T10:24:31;98360.25;;;25.51;59.67
18275;BME280;19470;49.322;7.218;2023-07-31T10:27:00;98357.16;;;25.80;58.64
18275;BME280;19470;49.322;7.218;2023-07-31T10:29:29;98365.16;;;25.17;59.02
18275;BME280;19470;49.322;7.218;2023-07-31T10:31:57;98366.03;;;25.21;60.38
18275;BME280;19470;49.322;7.218;2023-07-31T10:34:24;98359.63;;;25.41;59.52
18275;BME280;19470;49.322;7.218;2023-07-31T10:37:19;98356.19;;;25.44;58.95
18275;BME280;19470;49.322;7.218;2023-07-31T10:39:55;98353.06;;;25.42;59.76
18275;BME280;19470;49.322;7.218;2023-07-31T10:42:27;98348.47;;;26.96;55.50
18275;BME280;19470;49.322;7.218;2023-07-31T10:44:57;98349.59;;;27.11;54.53
18275;BME280;19470;49.322;7.218;2023-07-31T10:47:24;98349.00;;;27.21;54.46
18275;BME280;19470;49.322;7.218;2023-07-31T10:49:50;98357.59;;;27.23;54.71
18275;BME280;19470;49.322;7.218;2023-07-31T10:52:19;98351.56;;;26.40;57.00
18275;BME280;19470;49.322;7.218;2023-07-31T10:54:48;98366.31;;;27.13;54.01
18275;BME280;19470;49.322;7.218;2023-07-31T10:57:21;98371.53;;;26.47;56.18
18275;BME280;19470;49.322;7.218;2023-07-31T10:59:48;98352.06;;;25.94;58.33
18275;BME280;19470;49.322;7.218;2023-07-31T11:02:26;98343.91;;;26.26;58.47
18275;BME280;19470;49.322;7.218;2023-07-31T11:05:08;98336.81;;;26.57;57.67
18275;BME280;19470;49.322;7.218;2023-07-31T11:07:47;98342.91;;;26.50;56.67
18275;BME280;19470;49.322;7.218;2023-07-31T11:10:16;98340.19;;;25.83;57.92
18275;BME280;19470;49.322;7.218;2023-07-31T11:12:44;98332.31;;;26.29;57.58
18275;BME280;19470;49.322;7.218;2023-07-31T11:15:11;98327.31;;;26.86;57.10
18275;BME280;19470;49.322;7.218;2023-07-31T11:17:39;98327.75;;;27.07;55.90
18275;BME280;19470;49.322;7.218;2023-07-31T11:20:07;98338.56;;;26.14;58.24
18275;BME280;19470;49.322;7.218;2023-07-31T11:22:34;98326.97;;;27.07;56.29
18275;BME280;19470;49.322;7.218;2023-07-31T11:25:01;98318.28;;;26.43;57.77
18275;BME280;19470;49.322;7.218;2023-07-31T11:27:27;98327.94;;;26.24;57.76
18275;BME280;19470;49.322;7.218;2023-07-31T11:30:00;98324.75;;;27.55;55.53
18275;BME280;19470;49.322;7.218;2023-07-31T11:32:26;98330.44;;;27.69;54.89
18275;BME280;19470;49.322;7.218;2023-07-31T11:34:55;98333.41;;;27.18;56.18
18275;BME280;19470;49.322;7.218;2023-07-31T11:37:22;98332.38;;;25.97;59.69
18275;BME280;19470;49.322;7.218;2023-07-31T11:39:58;98328.38;;;25.76;60.22
18275;BME280;19470;49.322;7.218;2023-07-31T11:42:25;98330.00;;;26.12;60.00
18275;BME280;19470;49.322;7.218;2023-07-31T11:44:51;98324.59;;;26.86;58.62
18275;BME280;19470;49.322;7.218;2023-07-31T11:47:18;98327.31;;;26.47;59.09
18275;BME280;19470;49.322;7.218;2023-07-31T11:49:45;98318.53;;;26.03;59.92
18275;BME280;19470;49.322;7.218;2023-07-31T11:52:13;98313.13;;;26.38;59.68
18275;BME280;19470;49.322;7.218;2023-07-31T11:54:40;98309.25;;;25.56;61.12
18275;BME280;19470;49.322;7.218;2023-07-31T11:57:07;98307.41;;;25.44;61.84
18275;BME280;19470;49.322;7.218;2023-07-31T11:59:34;98315.38;;;25.37;62.61
18275;BME280;19470;49.322;7.218;2023-07-31T12:02:01;98316.38;;;25.17;61.22
18275;BME280;19470;49.322;7.218;2023-07-31T12:04:28;98308.53;;;25.43;60.91
18275;BME280;19470;49.322;7.218;2023-07-31T12:06:54;98312.84;;;26.08;60.35
18275;BME280;19470;49.322;7.218;2023-07-31T12:09:22;98301.88;;;26.74;58.31
18275;BME280;19470;49.322;7.218;2023-07-31T12:11:49;98311.06;;;26.15;57.55
18275;BME280;19470;49.322;7.218;2023-07-31T12:14:22;98308.53;;;25.43;60.25
18275;BME280;19470;49.322;7.218;2023-07-31T12:16:54;98309.50;;;26.14;58.74
18275;BME280;19470;49.322;7.218;2023-07-31T12:19:21;98308.66;;;25.94;58.93
18275;BME280;19470;49.322;7.218;2023-07-31T12:21:47;98302.69;;;27.37;55.35
18275;BME280;19470;49.322;7.218;2023-07-31T12:24:14;98306.03;;;25.66;59.66
18275;BME280;19470;49.322;7.218;2023-07-31T12:26:45;98307.78;;;26.41;59.27
18275;BME280;19470;49.322;7.218;2023-07-31T12:29:12;98299.09;;;26.00;59.52
18275;BME280;19470;49.322;7.218;2023-07-31T12:31:40;98294.72;;;26.12;59.87
18275;BME280;19470;49.322;7.218;2023-07-31T12:34:15;98288.25;;;25.37;62.16
18275;BME280;19470;49.322;7.218;2023-07-31T12:36:42;98290.06;;;26.12;59.53
18275;BME280;19470;49.322;7.218;2023-07-31T12:39:09;98274.88;;;25.13;63.48
18275;BME280;19470;49.322;7.218;2023-07-31T12:41:36;98280.06;;;25.81;62.09
18275;BME280;19470;49.322;7.218;2023-07-31T12:44:04;98281.53;;;25.94;61.23
18275;BME280;19470;49.322;7.218;2023-07-31T12:46:30;98277.47;;;26.39;59.89
18275;BME280;19470;49.322;7.218;2023-07-31T12:48:57;98283.00;;;27.20;58.37
18275;BME280;19470;49.322;7.218;2023-07-31T12:51:23;98278.38;;;25.92;61.38
18275;BME280;19470;49.322;7.218;2023-07-31T12:53:50;98281.19;;;25.80;61.72
18275;BME280;19470;49.322;7.218;2023-07-31T12:56:16;98289.75;;;25.35;61.84
18275;BME280;19470;49.322;7.218;2023-07-31T12:58:43;98298.06;;;25.42;61.78
18275;BME280;19470;49.322;7.218;2023-07-31T13:01:11;98280.47;;;25.99;62.06
18275;BME280;19470;49.322;7.218;2023-07-31T13:03:38;98291.69;;;25.82;63.50